sensor_id;sensor_type;location;lat;lon;timestamp;temperature;humidity
14409;DHT22;7289;50.706;4.992;2023-04-25T00:02:08;9.30;99.90
14409;DHT22;7289;50.706;4.992;2023-04-25T00:04:36;9.30;99.90
14409;DHT22;7289;50.706;4.992;2023-04-25T00:07:06;9.30;99.90
14409;DHT22;7289;50.706;4.992;2023-04-25T00:09:36;9.30;99.90
14409;DHT22;7289;50.706;4.992;2023-04-25T00:12:04;9.30;99.90
14409;DHT22;7289;50.706;4.992;2023-04-25T00:14:33;9.30;99.90
14409;DHT22;7289;50.706;4.992;2023-04-25T00:17:02;9.30;99.90
14409;DHT22;7289;50.706;4.992;2023-04-25T00:19:31;9.20;99.90
14409;DHT22;7289;50.706;4.992;2023-04-25T00:21:59;9.30;99.90
14409;DHT22;7289;50.706;4.992;2023-04-25T00:24:27;9.30;99.90
14409;DHT22;7289;50.706;4.992;2023-04-25T00:26:57;9.30;99.90
14409;DHT22;7289;50.706;4.992;2023-04-25T00:29:26;9.30;99.90
14409;DHT22;7289;50.706;4.992;2023-04-25T00:31:54;9.30;99.90
14409;DHT22;7289;50.706;4.992;2023-04-25T00:34:22;9.30;99.90
14409;DHT22;7289;50.706;4.992;2023-04-25T00:36:51;9.30;99.90
14409;DHT22;7289;50.706;4.992;2023-04-25T00:39:19;9.20;99.90
14409;DHT22;7289;50.706;4.992;2023-04-25T00:41:48;9.20;99.90
14409;DHT22;7289;50.706;4.992;2023-04-25T00:44:21;9.20;99.90
14409;DHT22;7289;50.706;4.992;2023-04-25T00:46:50;9.10;99.90
14409;DHT22;7289;50.706;4.992;2023-04-25T00:49:19;9.10;99.90
14409;DHT22;7289;50.706;4.992;2023-04-25T00:51:48;9.00;99.90
14409;DHT22;7289;50.706;4.992;2023-04-25T00:54:16;9.00;99.90
14409;DHT22;7289;50.706;4.992;2023-04-25T00:56:45;9.00;99.90
14409;DHT22;7289;50.706;4.992;2023-04-25T00:59:14;9.00;99.90
14409;DHT22;7289;50.706;4.992;2023-04-25T01:01:45;9.00;99.90
14409;DHT22;7289;50.706;4.992;2023-04-25T01:04:13;9.10;99.90
14409;DHT22;7289;50.706;4.992;2023-04-25T01:06:42;9.10;99.90
14409;DHT22;7289;50.706;4.992;2023-04-25T01:09:11;9.10;99.90
14409;DHT22;7289;50.706;4.992;2023-04-25T01:11:40;9.10;99.90
14409;DHT22;7289;50.706;4.992;2023-04-25T01:14:08;9.10;99.90
14409;DHT22;7289;50.706;4.992;2023-04-25T01:16:37;9.10;99.90
14409;DHT22;7289;50.706;4.992;2023-04-25T01:19:09;9.10;99.90
14409;DHT22;7289;50.706;4.992;2023-04-25T01:21:40;9.20;99.90
14409;DHT22;7289;50.706;4.992;2023-04-25T01:24:09;9.10;99.90
14409;DHT22;7289;50.706;4.992;2023-04-25T01:26:37;9.20;99.90
14409;DHT22;7289;50.706;4.992;2023-04-25T01:29:07;9.10;99.90
14409;DHT22;7289;50.706;4.992;2023-04-25T01:31:36;9.00;99.90
14409;DHT22;7289;50.706;4.992;2023-04-25T01:34:05;8.90;99.90
14409;DHT22;7289;50.706;4.992;2023-04-25T01:36:34;9.00;99.90
14409;DHT22;7289;50.706;4.992;2023-04-25T01:39:04;8.90;99.90
14409;DHT22;7289;50.706;4.992;2023-04-25T01:41:33;8.90;99.90
14409;DHT22;7289;50.706;4.992;2023-04-25T01:44:03;9.00;99.90
14409;DHT22;7289;50.706;4.992;2023-04-25T01:46:33;9.00;99.90
14409;DHT22;7289;50.706;4.992;2023-04-25T01:49:04;9.00;99.90
14409;DHT22;7289;50.706;4.992;2023-04-25T01:51:33;8.80;99.90
14409;DHT22;7289;50.706;4.992;2023-04-25T01:54:01;8.80;99.90
14409;DHT22;7289;50.706;4.992;2023-04-25T01:56:32;8.70;99.90
14409;DHT22;7289;50.706;4.992;2023-04-25T01:59:02;8.70;99.90
14409;DHT22;7289;50.706;4.992;2023-04-25T02:01:49;8.60;99.90
14409;DHT22;7289;50.706;4.992;2023-04-25T02:04:25;8.60;99.90
14409;DHT22;7289;50.706;4.992;2023-04-25T02:06:54;8.40;99.90
14409;DHT22;7289;50.706;4.992;2023-04-25T02:09:29;8.30;99.90
14409;DHT22;7289;50.706;4.992;2023-04-25T02:11:59;8.10;99.90
14409;DHT22;7289;50.706;4.992;2023-04-25T02:14:48;8.10;99.90
14409;DHT22;7289;50.706;4.992;2023-04-25T02:17:25;8.00;99.90
14409;DHT22;7289;50.706;4.992;2023-04-25T02:19:54;7.80;99.90
14409;DHT22;7289;50.706;4.992;2023-04-25T02:22:23;7.80;99.90
14409;DHT22;7289;50.706;4.992;2023-04-25T02:24:53;7.80;99.90
14409;DHT22;7289;50.706;4.992;2023-04-25T02:27:23;7.80;99.90
14409;DHT22;7289;50.706;4.992;2023-04-25T02:29:51;7.90;99.90
14409;DHT22;7289;50.706;4.992;2023-04-25T02:32:20;7.90;99.90
14409;DHT22;7289;50.706;4.992;2023-04-25T02:34:48;8.00;99.90
14409;DHT22;7289;50.706;4.992;2023-04-25T02:37:17;8.00;99.90
14409;DHT22;7289;50.706;4.992;2023-04-25T02:39:45;8.00;99.90
14409;DHT22;7289;50.706;4.992;2023-04-25T02:42:14;8.00;99.90
14409;DHT22;7289;50.706;4.992;2023-04-25T02:44:43;8.10;99.90
14409;DHT22;7289;50.706;4.992;2023-04-25T02:47:12;8.10;99.90
14409;DHT22;7289;50.706;4.992;2023-04-25T02:49:42;7.90;99.90
14409;DHT22;7289;50.706;4.992;2023-04-25T02:52:13;7.90;99.90
14409;DHT22;7289;50.706;4.992;2023-04-25T02:54:44;7.90;99.90
14409;DHT22;7289;50.706;4.992;2023-04-25T02:57:13;7.90;99.90
14409;DHT22;7289;50.706;4.992;2023-04-25T02:59:43;7.90;99.90
14409;DHT22;7289;50.706;4.992;2023-04-25T03:02:11;7.90;99.90
14409;DHT22;7289;50.706;4.992;2023-04-25T03:04:40;8.00;99.90
14409;DHT22;7289;50.706;4.992;2023-04-25T03:07:08;8.00;99.90
14409;DHT22;7289;50.706;4.992;2023-04-25T03:09:37;8.00;99.90
14409;DHT22;7289;50.706;4.992;2023-04-25T03:12:08;8.10;99.90
14409;DHT22;7289;50.706;4.992;2023-04-25T03:14:36;8.10;99.90
14409;DHT22;7289;50.706;4.992;2023-04-25T03:17:06;8.10;99.90
14409;DHT22;7289;50.706;4.992;2023-04-25T03:19:35;8.20;99.90
14409;DHT22;7289;50.706;4.992;2023-04-25T03:22:03;8.10;99.90
14409;DHT22;7289;50.706;4.992;2023-04-25T03:24:32;8.10;99.90
14409;DHT22;7289;50.706;4.992;2023-04-25T03:27:00;8.00;99.90
14409;DHT22;7289;50.706;4.992;2023-04-25T03:29:29;7.90;99.90
14409;DHT22;7289;50.706;4.992;2023-04-25T03:31:59;8.00;99.90
14409;DHT22;7289;50.706;4.992;2023-04-25T03:34:29;8.00;99.90
14409;DHT22;7289;50.706;4.992;2023-04-25T03:36:57;8.10;99.90
14409;DHT22;7289;50.706;4.992;2023-04-25T03:39:26;8.10;99.90
14409;DHT22;7289;50.706;4.992;2023-04-25T03:41:55;8.00;99.90
14409;DHT22;7289;50.706;4.992;2023-04-25T03:44:24;8.10;99.90
14409;DHT22;7289;50.706;4.992;2023-04-25T03:46:52;8.00;99.90
14409;DHT22;7289;50.706;4.992;2023-04-25T03:49:21;7.90;99.90
14409;DHT22;7289;50.706;4.992;2023-04-25T03:52:02;7.80;99.90
14409;DHT22;7289;50.706;4.992;2023-04-25T03:54:37;7.80;99.90
14409;DHT22;7289;50.706;4.992;2023-04-25T03:57:18;7.70;99.90
14409;DHT22;7289;50.706;4.992;2023-04-25T03:59:47;7.80;99.90
14409;DHT22;7289;50.706;4.992;2023-04-25T04:02:15;7.90;99.90
14409;DHT22;7289;50.706;4.992;2023-04-25T04:04:44;7.90;99.90
14409;DHT22;7289;50.706;4.992;2023-04-25T04:07:15;8.00;99.90
14409;DHT22;7289;50.706;4.992;2023-04-25T04:09:46;8.00;99.90
14409;DHT22;7289;50.706;4.992;2023-04-25T04:12:23;8.00;99.90
14409;DHT22;7289;50.706;4.992;2023-04-25T04:14:51;8.00;99.90
14409;DHT22;7289;50.706;4.992;2023-04-25T04:17:20;8.00;99.90
14409;DHT22;7289;50.706;4.992;2023-04-25T04:19:50;7.80;99.90
14409;DHT22;7289;50.706;4.992;2023-04-25T04:22:21;7.70;99.90
14409;DHT22;7289;50.706;4.992;2023-04-25T04:24:51;7.60;99.90
14409;DHT22;7289;50.706;4.992;2023-04-25T04:27:38;7.70;99.90
14409;DHT22;7289;50.706;4.992;2023-04-25T04:30:26;7.80;99.90
14409;DHT22;7289;50.706;4.992;2023-04-25T04:32:58;7.60;99.90
14409;DHT22;7289;50.706;4.992;2023-04-25T04:35:28;7.40;99.90
14409;DHT22;7289;50.706;4.992;2023-04-25T04:37:58;7.50;99.90
14409;DHT22;7289;50.706;4.992;2023-04-25T04:40:31;7.70;99.90
14409;DHT22;7289;50.706;4.992;2023-04-25T04:43:11;7.60;99.90
14409;DHT22;7289;50.706;4.992;2023-04-25T04:45:54;7.60;99.90
14409;DHT22;7289;50.706;4.992;2023-04-25T04:48:52;7.60;99.90
14409;DHT22;7289;50.706;4.992;2023-04-25T04:51:39;7.50;99.90
14409;DHT22;7289;50.706;4.992;2023-04-25T04:54:27;7.50;99.90
14409;DHT22;7289;50.706;4.992;2023-04-25T04:57:19;7.40;99.90
14409;DHT22;7289;50.706;4.992;2023-04-25T05:00:09;7.30;99.90
14409;DHT22;7289;50.706;4.992;2023-04-25T05:02:53;7.30;99.90
14409;DHT22;7289;50.706;4.992;2023-04-25T05:05:50;7.30;99.90
14409;DHT22;7289;50.706;4.992;2023-04-25T05:08:42;7.30;99.90
14409;DHT22;7289;50.706;4.992;2023-04-25T05:11:24;7.20;99.90
14409;DHT22;7289;50.706;4.992;2023-04-25T05:14:14;7.20;99.90
14409;DHT22;7289;50.706;4.992;2023-04-25T05:16:48;7.20;99.90
14409;DHT22;7289;50.706;4.992;2023-04-25T05:19:40;7.20;99.90
14409;DHT22;7289;50.706;4.992;2023-04-25T05:22:17;7.30;99.90
14409;DHT22;7289;50.706;4.992;2023-04-25T05:24:55;7.20;99.90
14409;DHT22;7289;50.706;4.992;2023-04-25T05:27:33;7.20;99.90
14409;DHT22;7289;50.706;4.992;2023-04-25T05:30:01;7.30;99.90
14409;DHT22;7289;50.706;4.992;2023-04-25T05:32:36;7.40;99.90
14409;DHT22;7289;50.706;4.992;2023-04-25T05:35:05;7.40;99.90
14409;DHT22;7289;50.706;4.992;2023-04-25T05:37:41;7.40;99.90
14409;DHT22;7289;50.706;4.992;2023-04-25T05:40:11;7.50;99.90
14409;DHT22;7289;50.706;4.992;2023-04-25T05:42:47;7.60;99.90
14409;DHT22;7289;50.706;4.992;2023-04-25T05:45:21;7.50;99.90
14409;DHT22;7289;50.706;4.992;2023-04-25T05:48:08;7.50;99.90
14409;DHT22;7289;50.706;4.992;2023-04-25T05:50:56;7.60;99.90
14409;DHT22;7289;50.706;4.992;2023-04-25T05:53:45;7.70;99.90
14409;DHT22;7289;50.706;4.992;2023-04-25T05:56:14;7.80;99.90
14409;DHT22;7289;50.706;4.992;2023-04-25T05:58:48;7.90;99.90
14409;DHT22;7289;50.706;4.992;2023-04-25T06:01:17;8.00;99.90
14409;DHT22;7289;50.706;4.992;2023-04-25T06:03:45;8.00;99.90
14409;DHT22;7289;50.706;4.992;2023-04-25T06:06:17;8.00;99.90
14409;DHT22;7289;50.706;4.992;2023-04-25T06:08:46;8.10;99.90
14409;DHT22;7289;50.706;4.992;2023-04-25T06:11:14;8.20;99.90
14409;DHT22;7289;50.706;4.992;2023-04-25T06:13:43;8.20;99.90
14409;DHT22;7289;50.706;4.992;2023-04-25T06:16:13;8.30;99.90
14409;DHT22;7289;50.706;4.992;2023-04-25T06:18:41;8.30;99.90
14409;DHT22;7289;50.706;4.992;2023-04-25T06:21:10;8.40;99.90
14409;DHT22;7289;50.706;4.992;2023-04-25T06:23:38;8.20;99.90
14409;DHT22;7289;50.706;4.992;2023-04-25T06:26:09;8.10;99.90
14409;DHT22;7289;50.706;4.992;2023-04-25T06:28:40;8.10;99.90
14409;DHT22;7289;50.706;4.992;2023-04-25T06:31:09;8.10;99.90
14409;DHT22;7289;50.706;4.992;2023-04-25T06:33:41;8.10;99.90
14409;DHT22;7289;50.706;4.992;2023-04-25T06:36:10;8.10;99.90
14409;DHT22;7289;50.706;4.992;2023-04-25T06:38:39;8.20;99.90
14409;DHT22;7289;50.706;4.992;2023-04-25T06:41:07;8.30;99.90
14409;DHT22;7289;50.706;4.992;2023-04-25T06:43:36;8.40;99.90
14409;DHT22;7289;50.706;4.992;2023-04-25T06:46:13;8.40;99.90
14409;DHT22;7289;50.706;4.992;2023-04-25T06:48:46;8.30;99.90
14409;DHT22;7289;50.706;4.992;2023-04-25T06:51:17;8.30;99.90
14409;DHT22;7289;50.706;4.992;2023-04-25T06:53:48;8.30;99.90
14409;DHT22;7289;50.706;4.992;2023-04-25T06:56:25;8.40;99.90
14409;DHT22;7289;50.706;4.992;2023-04-25T06:59:01;8.40;99.90
14409;DHT22;7289;50.706;4.992;2023-04-25T07:01:33;8.40;99.90
14409;DHT22;7289;50.706;4.992;2023-04-25T07:04:07;8.50;99.90
14409;DHT22;7289;50.706;4.992;2023-04-25T07:06:40;8.40;99.90
14409;DHT22;7289;50.706;4.992;2023-04-25T07:09:11;8.30;99.90
14409;DHT22;7289;50.706;4.992;2023-04-25T07:11:42;8.50;99.90
14409;DHT22;7289;50.706;4.992;2023-04-25T07:14:10;8.60;99.90
14409;DHT22;7289;50.706;4.992;2023-04-25T07:16:39;8.80;99.90
14409;DHT22;7289;50.706;4.992;2023-04-25T07:19:11;8.70;99.90
14409;DHT22;7289;50.706;4.992;2023-04-25T07:21:40;8.60;99.90
14409;DHT22;7289;50.706;4.992;2023-04-25T07:24:08;8.70;99.90
14409;DHT22;7289;50.706;4.992;2023-04-25T07:26:41;8.70;99.90
14409;DHT22;7289;50.706;4.992;2023-04-25T07:29:22;8.90;99.90
14409;DHT22;7289;50.706;4.992;2023-04-25T07:31:50;9.10;99.90
14409;DHT22;7289;50.706;4.992;2023-04-25T07:34:22;8.90;99.90
14409;DHT22;7289;50.706;4.992;2023-04-25T07:36:51;9.10;99.90
14409;DHT22;7289;50.706;4.992;2023-04-25T07:39:20;9.10;99.90
14409;DHT22;7289;50.706;4.992;2023-04-25T07:41:50;9.20;99.90
14409;DHT22;7289;50.706;4.992;2023-04-25T07:44:24;9.60;99.90
14409;DHT22;7289;50.706;4.992;2023-04-25T07:46:53;9.80;99.90
14409;DHT22;7289;50.706;4.992;2023-04-25T07:49:23;10.10;99.90
14409;DHT22;7289;50.706;4.992;2023-04-25T07:51:52;10.50;99.90
14409;DHT22;7289;50.706;4.992;2023-04-25T07:54:20;10.90;99.90
14409;DHT22;7289;50.706;4.992;2023-04-25T07:56:56;11.00;99.90
14409;DHT22;7289;50.706;4.992;2023-04-25T07:59:28;11.20;99.90
14409;DHT22;7289;50.706;4.992;2023-04-25T08:02:00;11.30;99.90
14409;DHT22;7289;50.706;4.992;2023-04-25T08:04:31;11.40;99.90
14409;DHT22;7289;50.706;4.992;2023-04-25T08:07:05;11.50;99.90
14409;DHT22;7289;50.706;4.992;2023-04-25T08:09:45;11.50;99.90
14409;DHT22;7289;50.706;4.992;2023-04-25T08:12:22;11.40;99.90
14409;DHT22;7289;50.706;4.992;2023-04-25T08:14:51;11.60;99.70
14409;DHT22;7289;50.706;4.992;2023-04-25T08:17:22;11.70;99.90
14409;DHT22;7289;50.706;4.992;2023-04-25T08:19:53;11.80;99.80
14409;DHT22;7289;50.706;4.992;2023-04-25T08:22:26;11.60;99.50
14409;DHT22;7289;50.706;4.992;2023-04-25T08:25:11;11.70;99.70
14409;DHT22;7289;50.706;4.992;2023-04-25T08:27:40;11.30;99.50
14409;DHT22;7289;50.706;4.992;2023-04-25T08:30:11;11.10;99.90
14409;DHT22;7289;50.706;4.992;2023-04-25T08:32:41;11.00;99.90
14409;DHT22;7289;50.706;4.992;2023-04-25T08:35:31;10.90;99.90
14409;DHT22;7289;50.706;4.992;2023-04-25T08:38:00;10.80;99.90
14409;DHT22;7289;50.706;4.992;2023-04-25T08:40:29;10.60;99.90
14409;DHT22;7289;50.706;4.992;2023-04-25T08:43:09;10.40;99.90
14409;DHT22;7289;50.706;4.992;2023-04-25T08:45:42;10.20;99.90
14409;DHT22;7289;50.706;4.992;2023-04-25T08:48:18;10.10;99.90
14409;DHT22;7289;50.706;4.992;2023-04-25T08:50:51;10.60;99.90
14409;DHT22;7289;50.706;4.992;2023-04-25T08:53:24;10.70;99.90
14409;DHT22;7289;50.706;4.992;2023-04-25T08:55:57;10.50;99.90
14409;DHT22;7289;50.706;4.992;2023-04-25T08:58:27;10.90;99.90
14409;DHT22;7289;50.706;4.992;2023-04-25T09:00:56;10.60;99.90
14409;DHT22;7289;50.706;4.992;2023-04-25T09:03:27;10.90;99.90
14409;DHT22;7289;50.706;4.992;2023-04-25T09:05:58;10.90;99.90
14409;DHT22;7289;50.706;4.992;2023-04-25T09:08:27;10.60;99.80
14409;DHT22;7289;50.706;4.992;2023-04-25T09:10:55;10.30;99.90
14409;DHT22;7289;50.706;4.992;2023-04-25T09:13:28;10.40;99.90
14409;DHT22;7289;50.706;4.992;2023-04-25T09:16:19;10.70;99.90
14409;DHT22;7289;50.706;4.992;2023-04-25T09:19:21;10.90;99.90
14409;DHT22;7289;50.706;4.992;2023-04-25T09:22:13;10.60;99.50
14409;DHT22;7289;50.706;4.992;2023-04-25T09:24:43;10.10;99.90
14409;DHT22;7289;50.706;4.992;2023-04-25T09:27:18;9.50;99.90
14409;DHT22;7289;50.706;4.992;2023-04-25T09:29:56;9.20;99.90
14409;DHT22;7289;50.706;4.992;2023-04-25T09:32:28;8.90;99.90
14409;DHT22;7289;50.706;4.992;2023-04-25T09:34:58;8.80;99.90
14409;DHT22;7289;50.706;4.992;2023-04-25T09:37:30;8.70;99.90
14409;DHT22;7289;50.706;4.992;2023-04-25T09:40:06;8.80;99.90
14409;DHT22;7289;50.706;4.992;2023-04-25T09:42:50;9.10;99.90
14409;DHT22;7289;50.706;4.992;2023-04-25T09:45:19;9.30;99.90
14409;DHT22;7289;50.706;4.992;2023-04-25T09:47:49;9.80;99.90
14409;DHT22;7289;50.706;4.992;2023-04-25T09:50:24;10.00;99.90
14409;DHT22;7289;50.706;4.992;2023-04-25T09:53:04;10.30;99.90
14409;DHT22;7289;50.706;4.992;2023-04-25T09:56:10;10.30;99.90
14409;DHT22;7289;50.706;4.992;2023-04-25T09:58:40;10.50;99.90
14409;DHT22;7289;50.706;4.992;2023-04-25T10:01:10;10.90;99.90
14409;DHT22;7289;50.706;4.992;2023-04-25T10:03:56;11.40;99.90
14409;DHT22;7289;50.706;4.992;2023-04-25T10:06:51;11.70;99.90
14409;DHT22;7289;50.706;4.992;2023-04-25T10:09:25;12.00;99.60
14409;DHT22;7289;50.706;4.992;2023-04-25T10:11:56;11.80;99.10
14409;DHT22;7289;50.706;4.992;2023-04-25T10:14:26;11.60;99.30
14409;DHT22;7289;50.706;4.992;2023-04-25T10:16:56;11.60;98.90
14409;DHT22;7289;50.706;4.992;2023-04-25T10:19:25;11.90;98.90
14409;DHT22;7289;50.706;4.992;2023-04-25T10:22:00;12.60;98.40
14409;DHT22;7289;50.706;4.992;2023-04-25T10:24:30;12.90;96.30
14409;DHT22;7289;50.706;4.992;2023-04-25T10:26:59;13.00;96.70
14409;DHT22;7289;50.706;4.992;2023-04-25T10:29:28;13.20;96.70
14409;DHT22;7289;50.706;4.992;2023-04-25T10:31:57;12.90;95.50
14409;DHT22;7289;50.706;4.992;2023-04-25T10:34:39;12.70;95.60
14409;DHT22;7289;50.706;4.992;2023-04-25T10:37:11;12.10;95.60
14409;DHT22;7289;50.706;4.992;2023-04-25T10:39:41;11.80;96.60
14409;DHT22;7289;50.706;4.992;2023-04-25T10:42:13;11.40;97.70
14409;DHT22;7289;50.706;4.992;2023-04-25T10:45:05;10.90;98.20
14409;DHT22;7289;50.706;4.992;2023-04-25T10:47:35;10.30;99.80
14409;DHT22;7289;50.706;4.992;2023-04-25T10:50:08;9.80;99.90
14409;DHT22;7289;50.706;4.992;2023-04-25T10:52:38;9.60;99.90
14409;DHT22;7289;50.706;4.992;2023-04-25T10:55:08;9.50;99.90
14409;DHT22;7289;50.706;4.992;2023-04-25T10:57:39;9.70;99.90
14409;DHT22;7289;50.706;4.992;2023-04-25T11:00:15;10.10;99.90
14409;DHT22;7289;50.706;4.992;2023-04-25T11:02:45;10.40;99.90
14409;DHT22;7289;50.706;4.992;2023-04-25T11:05:23;10.80;99.60
14409;DHT22;7289;50.706;4.992;2023-04-25T11:07:54;10.90;99.60
14409;DHT22;7289;50.706;4.992;2023-04-25T11:10:35;11.20;98.80
14409;DHT22;7289;50.706;4.992;2023-04-25T11:13:04;11.40;98.50
14409;DHT22;7289;50.706;4.992;2023-04-25T11:15:32;11.60;97.80
14409;DHT22;7289;50.706;4.992;2023-04-25T11:18:01;11.90;96.90
14409;DHT22;7289;50.706;4.992;2023-04-25T11:20:30;12.00;96.80
14409;DHT22;7289;50.706;4.992;2023-04-25T11:22:58;12.00;95.40
14409;DHT22;7289;50.706;4.992;2023-04-25T11:25:28;11.90;95.50
14409;DHT22;7289;50.706;4.992;2023-04-25T11:27:59;11.90;94.20
14409;DHT22;7289;50.706;4.992;2023-04-25T11:30:28;11.70;94.20
14409;DHT22;7289;50.706;4.992;2023-04-25T11:32:57;11.60;95.20
14409;DHT22;7289;50.706;4.992;2023-04-25T11:35:26;11.90;93.80
14409;DHT22;7289;50.706;4.992;2023-04-25T11:37:55;12.20;94.30
14409;DHT22;7289;50.706;4.992;2023-04-25T11:40:23;12.30;91.90
14409;DHT22;7289;50.706;4.992;2023-04-25T11:42:52;12.40;92.70
14409;DHT22;7289;50.706;4.992;2023-04-25T11:45:23;12.60;91.00
14409;DHT22;7289;50.706;4.992;2023-04-25T11:47:51;12.50;91.30
14409;DHT22;7289;50.706;4.992;2023-04-25T11:50:20;12.90;91.50
14409;DHT22;7289;50.706;4.992;2023-04-25T11:52:48;13.30;91.60
14409;DHT22;7289;50.706;4.992;2023-04-25T11:55:18;13.30;91.30
14409;DHT22;7289;50.706;4.992;2023-04-25T11:57:48;13.10;91.80
14409;DHT22;7289;50.706;4.992;2023-04-25T12:00:19;13.00;90.80
14409;DHT22;7289;50.706;4.992;2023-04-25T12:02:53;13.00;90.50
14409;DHT22;7289;50.706;4.992;2023-04-25T12:05:24;13.10;90.40
14409;DHT22;7289;50.706;4.992;2023-04-25T12:08:10;13.00;89.80
14409;DHT22;7289;50.706;4.992;2023-04-25T12:10:40;12.50;91.00
14409;DHT22;7289;50.706;4.992;2023-04-25T12:13:23;12.60;91.70
14409;DHT22;7289;50.706;4.992;2023-04-25T12:15:54;12.60;90.40
14409;DHT22;7289;50.706;4.992;2023-04-25T12:18:24;12.30;90.50
14409;DHT22;7289;50.706;4.992;2023-04-25T12:20:54;12.20;90.80
14409;DHT22;7289;50.706;4.992;2023-04-25T12:23:26;12.30;91.50
14409;DHT22;7289;50.706;4.992;2023-04-25T12:25:56;12.70;89.80
14409;DHT22;7289;50.706;4.992;2023-04-25T12:28:25;13.00;86.10
14409;DHT22;7289;50.706;4.992;2023-04-25T12:30:59;13.00;90.20
14409;DHT22;7289;50.706;4.992;2023-04-25T12:33:31;13.20;88.90
14409;DHT22;7289;50.706;4.992;2023-04-25T12:36:00;13.10;87.00
14409;DHT22;7289;50.706;4.992;2023-04-25T12:38:36;12.90;89.80
14409;DHT22;7289;50.706;4.992;2023-04-25T12:41:04;12.50;90.60
14409;DHT22;7289;50.706;4.992;2023-04-25T12:43:33;12.60;91.10
14409;DHT22;7289;50.706;4.992;2023-04-25T12:46:01;12.40;90.90
14409;DHT22;7289;50.706;4.992;2023-04-25T12:48:31;11.80;92.80
14409;DHT22;7289;50.706;4.992;2023-04-25T12:51:00;11.30;94.50
14409;DHT22;7289;50.706;4.992;2023-04-25T12:53:28;11.00;96.00
14409;DHT22;7289;50.706;4.992;2023-04-25T12:55:59;11.00;96.10
14409;DHT22;7289;50.706;4.992;2023-04-25T12:58:28;10.80;96.60
14409;DHT22;7289;50.706;4.992;2023-04-25T13:00:56;10.80;97.10
14409;DHT22;7289;50.706;4.992;2023-04-25T13:03:25;10.70;97.00
14409;DHT22;7289;50.706;4.992;2023-04-25T13:05:55;10.50;97.30
14409;DHT22;7289;50.706;4.992;2023-04-25T13:08:24;10.80;96.80
14409;DHT22;7289;50.706;4.992;2023-04-25T13:10:52;11.00;96.40
14409;DHT22;7289;50.706;4.992;2023-04-25T13:13:20;11.30;96.10
14409;DHT22;7289;50.706;4.992;2023-04-25T13:15:49;11.60;94.50
14409;DHT22;7289;50.706;4.992;2023-04-25T13:18:18;11.50;94.70
14409;DHT22;7289;50.706;4.992;2023-04-25T13:20:47;11.50;94.50
14409;DHT22;7289;50.706;4.992;2023-04-25T13:23:19;11.50;94.50
14409;DHT22;7289;50.706;4.992;2023-04-25T13:25:48;11.40;94.80
14409;DHT22;7289;50.706;4.992;2023-04-25T13:28:17;11.40;94.90
14409;DHT22;7289;50.706;4.992;2023-04-25T13:30:46;11.20;93.20
14409;DHT22;7289;50.706;4.992;2023-04-25T13:33:15;11.20;93.70
14409;DHT22;7289;50.706;4.992;2023-04-25T13:35:43;11.60;94.30
14409;DHT22;7289;50.706;4.992;2023-04-25T13:38:13;11.90;92.60
14409;DHT22;7289;50.706;4.992;2023-04-25T13:40:43;12.20;91.70
14409;DHT22;7289;50.706;4.992;2023-04-25T13:43:12;12.70;91.40
14409;DHT22;7289;50.706;4.992;2023-04-25T13:45:41;13.20;91.60
14409;DHT22;7289;50.706;4.992;2023-04-25T13:48:09;13.50;90.80
14409;DHT22;7289;50.706;4.992;2023-04-25T13:50:37;13.50;90.70
14409;DHT22;7289;50.706;4.992;2023-04-25T13:53:06;12.90;91.10
14409;DHT22;7289;50.706;4.992;2023-04-25T13:55:34;12.70;90.90
14409;DHT22;7289;50.706;4.992;2023-04-25T13:58:05;12.40;90.70
14409;DHT22;7289;50.706;4.992;2023-04-25T14:00:36;12.30;90.30
14409;DHT22;7289;50.706;4.992;2023-04-25T14:03:07;12.40;90.50
14409;DHT22;7289;50.706;4.992;2023-04-25T14:05:36;12.40;90.40
14409;DHT22;7289;50.706;4.992;2023-04-25T14:08:07;12.70;90.70
14409;DHT22;7289;50.706;4.992;2023-04-25T14:10:36;12.90;90.20
14409;DHT22;7289;50.706;4.992;2023-04-25T14:13:06;12.70;87.80
14409;DHT22;7289;50.706;4.992;2023-04-25T14:15:37;12.50;87.90
14409;DHT22;7289;50.706;4.992;2023-04-25T14:18:05;12.40;89.60
14409;DHT22;7289;50.706;4.992;2023-04-25T14:20:34;12.40;87.20
14409;DHT22;7289;50.706;4.992;2023-04-25T14:23:02;12.30;88.60
14409;DHT22;7289;50.706;4.992;2023-04-25T14:25:31;12.20;90.60
14409;DHT22;7289;50.706;4.992;2023-04-25T14:28:00;12.20;90.70
14409;DHT22;7289;50.706;4.992;2023-04-25T14:30:30;12.00;90.60
14409;DHT22;7289;50.706;4.992;2023-04-25T14:32:58;11.80;91.20
14409;DHT22;7289;50.706;4.992;2023-04-25T14:35:27;11.90;90.70
14409;DHT22;7289;50.706;4.992;2023-04-25T14:37:55;12.00;90.80
14409;DHT22;7289;50.706;4.992;2023-04-25T14:40:24;12.20;92.20
14409;DHT22;7289;50.706;4.992;2023-04-25T14:42:52;12.60;91.30
14409;DHT22;7289;50.706;4.992;2023-04-25T14:45:21;13.00;89.60
14409;DHT22;7289;50.706;4.992;2023-04-25T14:47:51;13.20;88.20
14409;DHT22;7289;50.706;4.992;2023-04-25T14:50:19;13.20;86.80
14409;DHT22;7289;50.706;4.992;2023-04-25T14:52:48;13.20;87.40
14409;DHT22;7289;50.706;4.992;2023-04-25T14:55:19;13.00;84.60
14409;DHT22;7289;50.706;4.992;2023-04-25T14:57:47;12.90;84.40
14409;DHT22;7289;50.706;4.992;2023-04-25T15:00:16;12.70;84.70
14409;DHT22;7289;50.706;4.992;2023-04-25T15:02:46;12.70;83.40
14409;DHT22;7289;50.706;4.992;2023-04-25T15:05:17;12.60;83.90
14409;DHT22;7289;50.706;4.992;2023-04-25T15:07:45;12.50;84.30
14409;DHT22;7289;50.706;4.992;2023-04-25T15:10:14;12.50;83.40
14409;DHT22;7289;50.706;4.992;2023-04-25T15:12:43;12.60;84.10
14409;DHT22;7289;50.706;4.992;2023-04-25T15:15:14;12.60;85.50
14409;DHT22;7289;50.706;4.992;2023-04-25T15:17:52;12.70;82.90
14409;DHT22;7289;50.706;4.992;2023-04-25T15:20:26;12.80;84.30
14409;DHT22;7289;50.706;4.992;2023-04-25T15:22:55;12.70;84.90
14409;DHT22;7289;50.706;4.992;2023-04-25T15:25:24;12.40;86.30
14409;DHT22;7289;50.706;4.992;2023-04-25T15:27:52;12.20;87.30
14409;DHT22;7289;50.706;4.992;2023-04-25T15:30:21;12.10;90.20
14409;DHT22;7289;50.706;4.992;2023-04-25T15:32:50;12.40;88.10
14409;DHT22;7289;50.706;4.992;2023-04-25T15:35:18;12.30;88.40
14409;DHT22;7289;50.706;4.992;2023-04-25T15:37:48;12.20;89.70
14409;DHT22;7289;50.706;4.992;2023-04-25T15:40:17;12.10;88.90
14409;DHT22;7289;50.706;4.992;2023-04-25T15:42:47;11.90;87.90
14409;DHT22;7289;50.706;4.992;2023-04-25T15:45:18;11.90;87.40
14409;DHT22;7289;50.706;4.992;2023-04-25T15:47:48;11.90;86.80
14409;DHT22;7289;50.706;4.992;2023-04-25T15:50:17;11.60;88.30
14409;DHT22;7289;50.706;4.992;2023-04-25T15:52:49;11.40;90.30
14409;DHT22;7289;50.706;4.992;2023-04-25T15:55:18;11.40;90.50
14409;DHT22;7289;50.706;4.992;2023-04-25T15:57:48;11.20;91.20
14409;DHT22;7289;50.706;4.992;2023-04-25T16:00:18;11.20;91.30
14409;DHT22;7289;50.706;4.992;2023-04-25T16:02:48;11.50;91.00
14409;DHT22;7289;50.706;4.992;2023-04-25T16:05:17;11.60;92.50
14409;DHT22;7289;50.706;4.992;2023-04-25T16:07:45;11.70;91.00
14409;DHT22;7289;50.706;4.992;2023-04-25T16:10:17;11.60;89.90
14409;DHT22;7289;50.706;4.992;2023-04-25T16:12:48;11.20;90.30
14409;DHT22;7289;50.706;4.992;2023-04-25T16:15:16;11.00;90.80
14409;DHT22;7289;50.706;4.992;2023-04-25T16:17:45;11.00;90.90
14409;DHT22;7289;50.706;4.992;2023-04-25T16:20:14;11.10;90.40
14409;DHT22;7289;50.706;4.992;2023-04-25T16:22:42;11.20;91.10
14409;DHT22;7289;50.706;4.992;2023-04-25T16:25:11;11.40;91.30